Time;durP1;ratioP1;P1;durP2;ratioP2;P2;SDS_P1;SDS_P2;PMS_P1;PMS_P2;Temp;Humidity;BMP_temperature;BMP_pressure;BME280_temperature;BME280_humidity;BME280_pressure;Samples;Min_cycle;Max_cycle;Signal;HPM_P1;HPM_P2
2024/03/10 00:01:40;;;;;;;5.33;3.20;;;;;;;9.50;67.30;99052.16;5113941;28;20035;-65
2024/03/10 00:04:09;;;;;;;1.43;1.13;;;;;;;9.51;67.05;99053.84;5115003;28;20311;-64
2024/03/10 00:06:38;;;;;;;2.67;2.33;;;;;;;9.52;67.02;99050.44;5114764;27;20107;-64
2024/03/10 00:09:08;;;;;;;1.60;1.50;;;;;;;9.51;67.68;99044.50;5114873;28;20032;-64
2024/03/10 00:11:38;;;;;;;1.48;1.38;;;;;;;9.54;67.26;99043.63;5114676;28;20051;-64
2024/03/10 00:14:07;;;;;;;1.05;1.02;;;;;;;9.56;66.75;99031.72;5114925;28;20032;-65
2024/03/10 00:16:36;;;;;;;0.93;0.93;;;;;;;9.61;66.86;99040.19;5113395;28;20550;-65
2024/03/10 00:19:05;;;;;;;2.13;1.27;;;;;;;9.59;67.22;99041.91;5114828;28;20040;-65
2024/03/10 00:21:34;;;;;;;1.20;1.10;;;;;;;9.63;67.34;99038.47;5114691;28;20490;-64
2024/03/10 00:24:04;;;;;;;0.98;0.93;;;;;;;9.66;66.48;99033.34;5114724;28;20082;-64
2024/03/10 00:26:34;;;;;;;1.55;1.27;;;;;;;9.66;66.37;99034.22;5114687;28;20082;-64
2024/03/10 00:29:03;;;;;;;1.67;1.58;;;;;;;9.70;66.68;99040.97;5113638;28;20046;-64
2024/03/10 00:31:32;;;;;;;4.18;2.30;;;;;;;9.70;66.74;99032.47;5114521;28;20126;-65
2024/03/10 00:34:01;;;;;;;1.63;1.17;;;;;;;9.70;66.73;99029.91;5114493;28;20039;-65
2024/03/10 00:36:29;;;;;;;1.75;1.63;;;;;;;9.72;66.37;99033.28;5114525;28;20043;-64
2024/03/10 00:38:58;;;;;;;1.40;1.30;;;;;;;9.71;66.95;99036.72;5114587;28;20116;-64
2024/03/10 00:41:27;;;;;;;1.20;1.10;;;;;;;9.74;66.61;99031.59;5114124;28;20446;-64
2024/03/10 00:43:57;;;;;;;1.67;1.55;;;;;;;9.73;66.39;99015.47;5114474;28;20043;-64
2024/03/10 00:46:26;;;;;;;2.25;2.03;;;;;;;9.74;66.84;99016.31;5113183;28;20476;-64
2024/03/10 00:48:55;;;;;;;1.90;1.73;;;;;;;9.72;66.16;99012.91;5114973;28;20062;-65
2024/03/10 00:51:25;;;;;;;2.40;1.77;;;;;;;9.73;66.72;99005.28;5114515;28;20040;-65
2024/03/10 00:53:54;;;;;;;0.90;0.85;;;;;;;9.73;66.33;98999.34;5114129;28;20046;-65
2024/03/10 00:56:22;;;;;;;2.97;1.30;;;;;;;9.76;66.39;99012.06;5113987;28;20391;-65
2024/03/10 00:58:51;;;;;;;1.25;1.15;;;;;;;9.66;66.62;98977.31;5114241;28;20043;-66
2024/03/10 01:01:22;;;;;;;1.43;1.33;;;;;;;9.76;66.41;98994.22;5113157;28;20127;-65
2024/03/10 01:03:51;;;;;;;1.13;0.98;;;;;;;9.75;66.13;98992.50;5113947;28;20290;-65
2024/03/10 01:06:19;;;;;;;1.77;1.38;;;;;;;9.77;66.47;98990.78;5114159;28;20039;-65
2024/03/10 01:08:49;;;;;;;1.70;1.60;;;;;;;9.76;66.72;98996.75;5114467;28;20051;-65
2024/03/10 01:11:18;;;;;;;;;;;;;;;9.75;66.45;98989.97;5114462;28;20486;-64
2024/03/10 01:13:47;;;;;;;1.27;1.17;;;;;;;9.76;66.62;98989.97;5113962;28;19919;-65
2024/03/10 01:16:16;;;;;;;1.55;1.38;;;;;;;9.75;66.49;98992.50;5114141;28;20036;-65
2024/03/10 01:18:47;;;;;;;2.03;1.83;;;;;;;9.74;66.86;98990.84;5114048;28;20124;-65
2024/03/10 01:21:16;;;;;;;3.40;1.38;;;;;;;9.74;66.75;98990.84;5118076;28;20052;-66
2024/03/10 01:23:46;;;;;;;1.03;1.03;;;;;;;9.75;66.53;98989.97;5118269;28;20039;-65
2024/03/10 01:26:14;;;;;;;2.42;1.45;;;;;;;9.70;67.15;98984.91;5118316;28;20035;-65
2024/03/10 01:28:43;;;;;;;1.35;1.17;;;;;;;9.75;66.52;98982.31;5118094;28;20045;-65
2024/03/10 01:31:12;;;;;;;4.70;2.13;;;;;;;9.75;66.72;98972.13;5118111;28;20044;-65
2024/03/10 01:33:41;;;;;;;2.03;1.60;;;;;;;9.77;66.86;98976.34;5116912;28;20126;-64
2024/03/10 01:36:12;;;;;;;7.47;1.08;;;;;;;9.78;67.10;98982.31;5116289;28;20051;-64
2024/03/10 01:38:41;;;;;;;1.80;1.60;;;;;;;9.77;66.44;98972.94;5116674;28;20119;-65
2024/03/10 01:41:11;;;;;;;2.10;1.92;;;;;;;9.75;66.63;98967.03;5115834;28;20043;-65
2024/03/10 01:43:41;;;;;;;1.23;0.95;;;;;;;9.75;66.44;98972.13;5116384;28;20043;-65
2024/03/10 01:46:11;;;;;;;2.38;1.90;;;;;;;9.72;66.60;98967.06;5117695;28;20040;-65
2024/03/10 01:48:41;;;;;;;2.42;1.85;;;;;;;9.72;66.40;98970.44;5117885;28;20052;-64
2024/03/10 01:51:13;;;;;;;1.35;1.25;;;;;;;9.72;66.26;98964.50;5117777;28;20047;-64
2024/03/10 01:53:43;;;;;;;0.88;0.70;;;;;;;9.74;66.31;98961.09;5116337;28;20079;-64
2024/03/10 01:56:13;;;;;;;0.98;0.88;;;;;;;9.73;66.79;98958.56;5117932;28;20170;-63
2024/03/10 01:58:44;;;;;;;2.55;1.73;;;;;;;9.73;66.48;98935.63;5117225;27;20040;-65
2024/03/10 02:01:16;;;;;;;1.35;1.25;;;;;;;9.73;65.62;98933.94;5116287;28;20048;-65
2024/03/10 02:03:46;;;;;;;1.67;1.58;;;;;;;9.64;65.82;98922.97;5117133;28;20063;-65
2024/03/10 02:06:17;;;;;;;2.58;1.25;;;;;;;9.69;66.00;98921.25;5116313;28;20050;-64
2024/03/10 02:08:47;;;;;;;2.65;1.75;;;;;;;9.73;66.24;98917.78;5116060;28;20486;-65
2024/03/10 02:11:16;;;;;;;0.60;0.60;;;;;;;9.72;65.75;98916.09;5117388;28;20131;-64
2024/03/10 02:13:45;;;;;;;1.33;1.23;;;;;;;9.74;66.23;98914.41;5099015;28;20040;-64
2024/03/10 02:16:14;;;;;;;0.83;0.83;;;;;;;9.67;65.63;98897.50;5117337;28;20044;-65
2024/03/10 02:18:43;;;;;;;0.90;0.80;;;;;;;9.75;65.95;98900.78;5115715;28;20027;-65
2024/03/10 02:21:14;;;;;;;1.07;0.97;;;;;;;9.65;65.98;98873.69;5117034;28;20036;-65
2024/03/10 02:23:55;;;;;;;1.58;1.48;;;;;;;9.74;66.18;98883.81;5117005;28;20283;-64
2024/03/10 02:26:32;;;;;;;1.50;1.33;;;;;;;9.75;65.80;98895.69;5115895;28;20069;-65
2024/03/10 02:29:14;;;;;;;1.52;1.42;;;;;;;9.72;65.77;98899.09;5117216;28;20151;-65
2024/03/10 02:48:29;;;;;;;1.30;1.20;;;;;;;9.78;65.54;98875.28;5116631;28;20054;-65
2024/03/10 02:50:58;;;;;;;2.95;2.65;;;;;;;9.81;65.14;98882.91;5116175;28;20051;-65
2024/03/10 02:53:26;;;;;;;1.23;1.13;;;;;;;9.82;65.88;98876.94;5116458;28;20043;-66
2024/03/10 02:55:55;;;;;;;1.27;0.93;;;;;;;9.76;65.72;98872.75;5116459;28;20038;-66
2024/03/10 02:58:26;;;;;;;1.97;1.77;;;;;;;9.76;65.99;98871.91;5114986;28;20315;-65
2024/03/10 03:00:55;;;;;;;0.98;0.75;;;;;;;9.83;65.43;98878.63;5116491;28;20109;-65
2024/03/10 03:03:23;;;;;;;1.38;1.27;;;;;;;9.83;65.61;98883.72;5114962;28;20028;-64
2024/03/10 03:05:53;;;;;;;0.90;0.90;;;;;;;9.84;65.46;98870.09;5116272;28;20134;-65
2024/03/10 03:08:24;;;;;;;1.02;0.93;;;;;;;9.83;65.91;98868.44;5116004;28;20516;-66
2024/03/10 03:10:53;;;;;;;0.70;0.60;;;;;;;9.86;65.65;98864.13;5116167;28;20393;-65
2024/03/10 03:13:22;;;;;;;1.70;1.25;;;;;;;9.83;65.91;98858.25;5116078;28;20040;-65
2024/03/10 03:15:52;;;;;;;0.97;0.97;;;;;;;9.57;65.92;98804.19;5116040;28;20070;-65
2024/03/10 03:18:21;;;;;;;1.30;1.20;;;;;;;9.93;65.60;98864.94;5115854;28;20050;-65
2024/03/10 03:20:51;;;;;;;1.92;1.73;;;;;;;9.96;65.48;98854.66;5115930;28;20059;-65
2024/03/10 03:23:20;;;;;;;0.90;0.90;;;;;;;9.98;66.08;98850.44;5115520;28;20047;-65
2024/03/10 03:25:49;;;;;;;1.27;1.17;;;;;;;10.01;65.43;98858.00;5115827;28;20104;-64
2024/03/10 03:28:20;;;;;;;0.68;0.68;;;;;;;10.00;65.77;98861.44;5114485;28;20470;-66
2024/03/10 03:30:49;;;;;;;1.73;1.52;;;;;;;10.02;65.96;98849.53;5116099;28;20044;-65
2024/03/10 03:33:20;;;;;;;0.95;0.93;;;;;;;10.05;65.48;98849.50;5115683;28;20043;-64
2024/03/10 03:35:49;;;;;;;1.17;1.08;;;;;;;10.07;65.44;98852.88;5116015;28;20057;-65
2024/03/10 03:38:18;;;;;;;1.25;1.15;;;;;;;10.08;65.69;98850.28;5115735;28;20035;-64
2024/03/10 03:40:49;;;;;;;1.10;1.05;;;;;;;10.10;65.87;98858.75;5115429;28;20048;-65
2024/03/10 03:43:18;;;;;;;0.50;0.50;;;;;;;10.12;65.34;98861.34;5114702;28;20035;-65
2024/03/10 03:45:49;;;;;;;0.82;0.82;;;;;;;10.13;65.86;98857.06;5114261;28;20036;-65
2024/03/10 03:48:20;;;;;;;2.25;1.73;;;;;;;10.16;65.40;98846.81;5115201;27;20089;-65
2024/03/10 03:50:49;;;;;;;1.20;1.10;;;;;;;10.17;65.29;98843.44;5115395;28;20067;-65
2024/03/10 03:53:18;;;;;;;0.65;0.57;;;;;;;10.17;65.36;98839.19;5115131;28;20518;-65
2024/03/10 03:55:47;;;;;;;0.63;0.60;;;;;;;10.20;65.61;98834.00;5115466;28;20126;-65
2024/03/10 03:58:16;;;;;;;1.15;1.08;;;;;;;10.19;65.74;98840.00;5114821;28;20044;-65
2024/03/10 04:00:45;;;;;;;2.85;1.65;;;;;;;10.21;64.99;98835.72;5115455;28;20510;-64
2024/03/10 04:03:14;;;;;;;1.60;1.27;;;;;;;10.22;64.69;98826.38;5115186;28;20036;-65
2024/03/10 04:05:44;;;;;;;0.88;0.88;;;;;;;10.23;65.29;98833.97;5115054;28;20031;-65
2024/03/10 04:08:13;;;;;;;1.13;1.05;;;;;;;10.23;65.17;98826.34;5115076;28;20044;-65
2024/03/10 04:10:42;;;;;;;0.95;0.80;;;;;;;10.24;64.86;98820.38;5113805;28;20078;-65
2024/03/10 04:13:11;;;;;;;1.25;1.15;;;;;;;10.26;65.25;98826.31;5114930;28;20038;-65
2024/03/10 04:15:40;;;;;;;1.38;1.23;;;;;;;10.20;64.61;98823.00;5114614;28;20051;-64
2024/03/10 04:18:09;;;;;;;1.03;0.73;;;;;;;10.16;64.80;98791.59;5113702;28;20047;-65
2024/03/10 04:20:38;;;;;;;3.50;0.95;;;;;;;10.24;65.06;98820.38;5114844;28;20489;-65
2024/03/10 04:23:10;;;;;;;1.27;1.10;;;;;;;10.22;65.18;98821.25;5114575;28;20034;-65
2024/03/10 04:25:39;;;;;;;4.22;1.38;;;;;;;10.18;65.70;98820.44;5114696;28;20412;-65
2024/03/10 04:28:08;;;;;;;1.77;1.35;;;;;;;10.19;66.38;98827.25;5114479;28;20036;-65
2024/03/10 04:30:37;;;;;;;6.45;1.52;;;;;;;10.17;66.10;98834.06;5114659;28;20540;-65
2024/03/10 04:33:06;;;;;;;0.75;0.75;;;;;;;10.15;66.15;98840.06;5114306;28;20044;-65
2024/03/10 04:35:37;;;;;;;1.10;1.05;;;;;;;10.06;66.44;98833.31;5112134;28;20080;-65
2024/03/10 04:38:07;;;;;;;1.63;1.13;;;;;;;10.10;66.90;98845.19;5114556;28;20074;-65
2024/03/10 04:40:37;;;;;;;0.63;0.63;;;;;;;10.07;66.52;98845.22;5113334;28;20040;-65
2024/03/10 04:43:06;;;;;;;0.70;0.70;;;;;;;10.04;67.73;98847.78;5114594;28;20040;-65
2024/03/10 04:45:35;;;;;;;0.60;0.60;;;;;;;9.99;67.93;98854.66;5112836;28;20134;-65
2024/03/10 04:48:08;;;;;;;0.47;0.47;;;;;;;9.95;68.24;98843.66;5114702;28;20404;-65
2024/03/10 04:50:36;;;;;;;1.15;1.05;;;;;;;9.92;68.88;98848.78;5114450;28;20039;-65
2024/03/10 04:53:05;;;;;;;0.80;0.80;;;;;;;9.83;68.48;98837.84;5114196;28;20040;-65
2024/03/10 04:55:34;;;;;;;1.17;1.07;;;;;;;9.86;69.36;98848.03;5114554;28;20039;-66
2024/03/10 04:58:05;;;;;;;1.00;1.00;;;;;;;9.84;69.35;98849.72;5114085;28;20056;-65
2024/03/10 05:00:34;;;;;;;2.22;1.38;;;;;;;9.82;69.92;98841.25;5114584;28;20048;-65
2024/03/10 05:03:06;;;;;;;1.15;0.93;;;;;;;9.80;70.17;98840.44;5114035;28;20508;-65
2024/03/10 05:05:35;;;;;;;0.63;0.63;;;;;;;9.82;70.02;98841.25;5113764;28;20050;-65
2024/03/10 05:08:04;;;;;;;1.63;1.53;;;;;;;9.82;70.35;98836.16;5114248;28;20130;-65
2024/03/10 05:10:33;;;;;;;1.17;1.05;;;;;;;9.81;70.94;98842.13;5114237;28;20272;-66
2024/03/10 05:13:02;;;;;;;1.17;1.07;;;;;;;9.74;70.80;98833.69;5113842;28;20051;-65
2024/03/10 05:15:32;;;;;;;2.20;1.63;;;;;;;9.75;71.34;98835.38;5114094;28;20071;-66
2024/03/10 05:18:01;;;;;;;0.73;0.73;;;;;;;9.76;70.86;98841.34;5114219;28;20047;-65
2024/03/10 05:20:30;;;;;;;0.60;0.60;;;;;;;9.74;70.69;98837.97;5112910;28;20039;-66
2024/03/10 05:22:59;;;;;;;;;;;;;;;9.66;70.53;98835.50;5114581;28;20142;-67
2024/03/10 05:25:29;;;;;;;2.10;1.90;;;;;;;9.59;71.10;98833.88;5113965;28;19920;-66
2024/03/10 05:27:58;;;;;;;1.15;1.05;;;;;;;9.58;71.83;98832.16;5113752;28;20406;-65
2024/03/10 05:30:26;;;;;;;0.57;0.57;;;;;;;9.57;71.48;98837.28;5112845;28;20136;-66
2024/03/10 05:32:57;;;;;;;1.13;1.03;;;;;;;9.56;71.76;98839.00;5113753;28;20489;-67
2024/03/10 05:35:25;;;;;;;0.80;0.80;;;;;;;9.56;71.71;98838.13;5113668;28;20051;-65
2024/03/10 05:37:54;;;;;;;6.10;2.33;;;;;;;9.57;72.34;98834.75;5113585;28;20043;-66
2024/03/10 05:40:23;;;;;;;0.40;0.40;;;;;;;9.59;71.78;98830.47;5113604;28;20040;-67
2024/03/10 05:42:52;;;;;;;0.95;0.82;;;;;;;9.55;72.42;98821.19;5113998;28;20047;-66
2024/03/10 05:45:21;;;;;;;0.77;0.77;;;;;;;9.54;71.90;98824.59;5113390;28;20105;-66
2024/03/10 05:47:50;;;;;;;3.07;1.67;;;;;;;9.53;72.31;98820.34;5113777;28;20127;-65
2024/03/10 05:50:21;;;;;;;;;;;;;;;9.55;72.08;98821.19;5114873;28;20358;-66
2024/03/10 05:52:50;;;;;;;0.68;0.68;;;;;;;9.56;72.26;98823.72;5111999;28;19926;-66
2024/03/10 05:55:20;;;;;;;0.60;0.60;;;;;;;9.55;72.57;98811.00;5114076;28;20055;-66
2024/03/10 05:57:49;;;;;;;2.25;2.05;;;;;;;9.59;72.81;98813.50;5112233;28;20280;-66
2024/03/10 06:00:18;;;;;;;1.40;1.30;;;;;;;9.60;72.84;98820.25;5113724;28;20043;-65
2024/03/10 06:02:48;;;;;;;0.70;0.68;;;;;;;9.55;73.34;98808.47;5113802;28;20042;-65
2024/03/10 06:05:17;;;;;;;1.55;1.17;;;;;;;9.62;73.03;98812.63;5112582;28;20028;-65
2024/03/10 06:07:47;;;;;;;2.80;1.35;;;;;;;9.64;73.58;98819.38;5117365;28;20032;-65
2024/03/10 06:10:18;;;;;;;1.17;1.08;;;;;;;9.64;73.62;98816.84;5117418;28;20075;-65
2024/03/10 06:12:47;;;;;;;1.33;1.23;;;;;;;9.67;73.44;98813.41;5117281;28;20116;-66
2024/03/10 06:15:17;;;;;;;1.02;1.00;;;;;;;9.23;72.94;98743.44;5117206;28;20126;-66
2024/03/10 06:18:03;;;;;;;1.17;1.00;;;;;;;9.70;73.14;98819.31;5117284;28;20047;-66
2024/03/10 06:26:06;;;;;;;1.80;1.70;;;;;;;9.70;73.45;98821.84;5116708;28;20111;-65
2024/03/10 06:28:35;;;;;;;2.10;1.57;;;;;;;9.74;74.03;98827.78;5117012;28;20039;-66
2024/03/10 06:31:04;;;;;;;0.60;0.60;;;;;;;9.75;74.12;98820.09;5116990;27;20093;-66
2024/03/10 06:33:35;;;;;;;1.20;1.05;;;;;;;9.62;74.14;98792.25;5116737;28;20028;-66
2024/03/10 06:36:08;;;;;;;1.30;1.20;;;;;;;9.78;73.66;98796.28;5115628;28;20047;-67
2024/03/10 06:38:40;;;;;;;2.53;1.45;;;;;;;10.07;73.68;98812.06;5116773;28;20075;-66
2024/03/10 06:41:09;;;;;;;1.23;1.13;;;;;;;10.17;73.43;98800.94;5116840;28;20134;-66
2024/03/10 06:43:38;;;;;;;1.50;1.40;;;;;;;10.35;73.33;98823.63;5116721;28;20139;-66
2024/03/10 06:46:09;;;;;;;1.17;1.10;;;;;;;10.37;73.01;98821.88;5116308;28;20130;-67
2024/03/10 06:48:38;;;;;;;0.55;0.55;;;;;;;10.21;72.32;98810.22;5116652;28;20052;-66
2024/03/10 06:51:07;;;;;;;0.60;0.60;;;;;;;10.33;72.33;98825.34;5116349;28;20142;-66
2024/03/10 06:53:36;;;;;;;1.73;1.63;;;;;;;10.32;72.23;98818.56;5115303;28;20040;-66
2024/03/10 06:56:08;;;;;;;1.00;0.90;;;;;;;10.32;72.50;98821.09;5115114;28;20326;-66
2024/03/10 06:58:38;;;;;;;1.38;1.17;;;;;;;10.36;72.21;98825.31;5116148;28;20379;-65
2024/03/10 07:01:06;;;;;;;2.07;1.77;;;;;;;10.39;72.45;98822.69;5116122;28;20039;-65
2024/03/10 07:03:35;;;;;;;0.80;0.70;;;;;;;10.41;72.16;98818.44;5098043;28;20051;-65
2024/03/10 07:06:06;;;;;;;1.33;1.23;;;;;;;10.41;72.09;98818.44;5115967;28;20036;-67
2024/03/10 07:08:36;;;;;;;1.40;1.30;;;;;;;10.48;71.99;98814.94;5116216;27;20058;-65
2024/03/10 07:11:08;;;;;;;0.87;0.87;;;;;;;10.47;71.68;98809.84;5115885;28;20051;-67
2024/03/10 07:13:37;;;;;;;2.45;1.48;;;;;;;10.48;71.71;98802.19;5114849;28;20059;-66
2024/03/10 07:16:07;;;;;;;0.68;0.68;;;;;;;10.49;72.04;98806.41;5114845;28;20036;-66
2024/03/10 07:18:37;;;;;;;0.60;0.60;;;;;;;10.53;71.94;98797.84;5114772;28;20031;-66
2024/03/10 07:21:06;;;;;;;0.43;0.43;;;;;;;10.53;72.02;98805.50;5116240;28;20052;-65
2024/03/10 07:23:34;;;;;;;1.00;0.70;;;;;;;10.54;72.54;98802.09;5114749;28;20035;-66
2024/03/10 07:26:04;;;;;;;0.80;0.80;;;;;;;10.58;72.05;98798.63;5114663;28;20053;-66
2024/03/10 07:28:34;;;;;;;0.88;0.88;;;;;;;10.58;72.67;98803.72;5115788;28;20063;-65
2024/03/10 07:31:04;;;;;;;1.27;0.95;;;;;;;10.59;72.89;98807.97;5114042;28;20043;-65
2024/03/10 07:33:33;;;;;;;2.40;0.93;;;;;;;10.58;72.54;98801.16;5114451;28;20051;-66
2024/03/10 07:36:02;;;;;;;0.82;0.77;;;;;;;10.59;72.90;98805.41;5115624;28;20057;-65
2024/03/10 07:38:31;;;;;;;1.05;0.98;;;;;;;10.53;72.61;98797.84;5115232;28;20103;-64
2024/03/10 07:41:00;;;;;;;1.00;1.00;;;;;;;10.60;72.84;98812.22;5114321;28;20035;-65
2024/03/10 07:43:30;;;;;;;1.23;1.13;;;;;;;10.62;72.47;98805.38;5115741;28;20758;-65
2024/03/10 07:46:00;;;;;;;0.73;0.73;;;;;;;10.62;72.70;98805.38;5115303;28;20071;-65
2024/03/10 07:48:30;;;;;;;0.73;0.73;;;;;;;10.62;72.63;98807.09;5115438;28;20043;-66
2024/03/10 07:50:59;;;;;;;1.52;1.40;;;;;;;10.64;72.57;98806.19;5115241;28;20043;-65
2024/03/10 07:53:28;;;;;;;2.58;1.63;;;;;;;10.61;72.47;98806.22;5114045;28;20036;-65
2024/03/10 07:55:58;;;;;;;3.20;1.33;;;;;;;10.67;72.02;98801.06;5115051;28;20032;-66
2024/03/10 07:58:26;;;;;;;3.72;2.42;;;;;;;10.71;72.08;98792.47;5115161;28;20578;-65
2024/03/10 08:00:55;;;;;;;0.77;0.77;;;;;;;10.75;72.02;98799.19;5114875;28;20040;-65
2024/03/10 08:03:25;;;;;;;3.03;2.20;;;;;;;10.82;72.08;98794.03;5115146;28;20108;-65
2024/03/10 08:05:55;;;;;;;1.15;1.02;;;;;;;10.82;71.68;98794.03;5114955;28;20323;-66
2024/03/10 08:08:24;;;;;;;2.22;1.83;;;;;;;10.87;71.69;98793.06;5115017;28;20104;-65
2024/03/10 08:10:53;;;;;;;1.38;1.27;;;;;;;10.88;71.48;98783.69;5114569;28;20104;-65
2024/03/10 08:13:22;;;;;;;0.50;0.50;;;;;;;10.88;71.63;98789.66;5112886;28;20447;-65
2024/03/10 08:15:51;;;;;;;1.83;1.48;;;;;;;10.88;71.49;98786.25;5107382;28;20040;-65
2024/03/10 08:18:19;;;;;;;1.02;1.02;;;;;;;10.85;71.64;98778.63;5093177;28;20043;-65
2024/03/10 08:20:50;;;;;;;2.20;1.67;;;;;;;10.91;71.81;98773.44;5093364;28;20048;-65
2024/03/10 08:23:19;;;;;;;0.60;0.60;;;;;;;10.96;71.80;98769.09;5094382;28;20040;-65
2024/03/10 08:25:48;;;;;;;0.70;0.70;;;;;;;11.01;71.73;98774.97;5093121;28;20482;-65
2024/03/10 08:28:19;;;;;;;1.08;1.02;;;;;;;11.04;71.92;98769.78;5093926;28;20044;-63
2024/03/10 08:30:49;;;;;;;;;;;;;;;11.11;71.68;98769.66;5093401;28;20134;-65
2024/03/10 08:33:18;;;;;;;1.48;1.13;;;;;;;11.23;71.51;98771.16;5094314;28;19927;-65
2024/03/10 08:35:49;;;;;;;1.15;1.05;;;;;;;11.34;71.33;98774.38;5092720;28;20074;-65
2024/03/10 08:38:18;;;;;;;0.45;0.45;;;;;;;11.40;71.23;98764.88;5093914;28;20057;-65
2024/03/10 08:40:47;;;;;;;2.43;1.37;;;;;;;11.49;70.77;98757.91;5092919;28;20137;-65
2024/03/10 08:43:16;;;;;;;1.15;1.05;;;;;;;11.48;70.75;98762.19;5092807;28;20384;-65
2024/03/10 08:45:45;;;;;;;1.40;1.27;;;;;;;11.55;71.05;98761.19;5092837;28;20501;-65
2024/03/10 08:48:14;;;;;;;1.23;1.13;;;;;;;11.65;70.61;98754.19;5094133;28;20036;-65
2024/03/10 08:50:44;;;;;;;0.82;0.80;;;;;;;11.62;70.33;98749.97;5093030;28;20463;-66
2024/03/10 08:53:14;;;;;;;1.38;1.27;;;;;;;11.66;70.00;98751.59;5092760;28;20094;-64
2024/03/10 08:55:44;;;;;;;0.68;0.68;;;;;;;11.41;69.52;98699.31;5075993;28;20040;-64
2024/03/10 08:58:13;;;;;;;2.10;1.60;;;;;;;11.70;69.76;98763.47;5093391;28;20478;-65
2024/03/10 09:00:43;;;;;;;1.35;1.25;;;;;;;11.73;69.81;98771.09;5093946;28;20460;-64
2024/03/10 09:03:12;;;;;;;1.00;0.95;;;;;;;11.78;69.99;98756.47;5093877;28;20052;-65
2024/03/10 09:05:41;;;;;;;1.25;1.15;;;;;;;11.65;68.91;98715.84;5093899;28;20037;-66
2024/03/10 09:08:10;;;;;;;1.38;1.10;;;;;;;11.76;69.01;98742.91;5093472;28;20550;-64
2024/03/10 09:10:41;;;;;;;1.50;1.13;;;;;;;11.95;68.73;98759.53;5092589;28;20094;-65
2024/03/10 09:13:25;;;;;;;1.25;1.15;;;;;;;11.86;68.87;98754.63;5092662;28;20487;-66
2024/03/10 09:15:54;;;;;;;2.58;1.63;;;;;;;11.80;68.99;98752.22;5093882;28;20435;-65
2024/03/10 09:18:23;;;;;;;1.33;1.23;;;;;;;11.78;69.01;98748.81;5093702;28;20493;-65
2024/03/10 09:20:52;;;;;;;1.77;1.40;;;;;;;11.80;69.03;98734.31;5091626;28;20439;-65
2024/03/10 09:23:21;;;;;;;3.93;2.43;;;;;;;11.78;69.28;98745.44;5093714;28;20091;-65
2024/03/10 09:25:51;;;;;;;1.48;1.38;;;;;;;11.66;69.32;98743.91;5093633;28;20277;-65
2024/03/10 09:28:22;;;;;;;2.35;2.15;;;;;;;11.61;69.42;98750.00;5092095;28;20432;-65
2024/03/10 09:30:51;;;;;;;1.98;1.83;;;;;;;11.70;69.54;98743.03;5092112;28;20032;-66
2024/03/10 09:33:22;;;;;;;1.93;1.17;;;;;;;11.70;69.51;98735.38;5093542;28;20475;-64
2024/03/10 09:35:55;;;;;;;0.65;0.65;;;;;;;11.75;69.52;98725.91;5092217;28;20651;-65
2024/03/10 09:38:24;;;;;;;1.42;1.33;;;;;;;11.76;69.12;98732.66;5093212;28;20097;-65
2024/03/10 09:40:59;;;;;;;1.30;1.13;;;;;;;11.83;69.37;98743.63;5093410;28;20557;-66
2024/03/10 09:43:31;;;;;;;0.77;0.77;;;;;;;11.93;69.46;98740.84;5097465;28;20047;-65
2024/03/10 09:46:01;;;;;;;3.17;1.30;;;;;;;12.04;69.34;98744.00;5096117;28;20489;-65
2024/03/10 09:48:30;;;;;;;1.40;1.25;;;;;;;12.28;69.35;98747.75;5097098;28;20089;-65
2024/03/10 09:51:00;;;;;;;1.15;1.02;;;;;;;12.51;69.05;98754.88;5095839;28;20101;-65
2024/03/10 09:53:29;;;;;;;;;;;;;;;12.60;68.00;98739.28;5097374;28;20085;-64
2024/03/10 09:56:00;;;;;;;2.22;1.55;;;;;;;12.67;67.80;98740.84;5095765;28;20316;-64
2024/03/10 09:58:45;;;;;;;0.63;0.63;;;;;;;13.05;67.31;98737.34;5095527;28;20064;-65
2024/03/10 10:01:18;;;;;;;1.20;1.10;;;;;;;13.40;65.62;98739.84;5097195;28;20493;-65
2024/03/10 10:03:49;;;;;;;2.33;1.55;;;;;;;13.71;65.43;98730.41;5096806;28;20058;-65
2024/03/10 10:06:20;;;;;;;1.98;1.15;;;;;;;13.78;65.01;98731.06;5096944;28;20143;-67
2024/03/10 10:08:54;;;;;;;2.88;1.05;;;;;;;13.83;65.06;98734.34;5078317;28;20051;-65
2024/03/10 10:11:25;;;;;;;1.35;1.25;;;;;;;13.69;65.00;98727.03;5096898;28;20520;-65
2024/03/10 10:14:15;;;;;;;0.88;0.88;;;;;;;13.60;64.52;98722.19;5095796;28;20058;-65
2024/03/10 10:16:55;;;;;;;1.15;1.05;;;;;;;13.42;64.87;98735.50;5078062;28;20056;-65
2024/03/10 10:19:26;;;;;;;3.25;1.27;;;;;;;13.34;64.81;98722.88;5086996;28;20123;-64
2024/03/10 10:21:55;;;;;;;1.48;1.25;;;;;;;13.34;65.01;98715.19;5074607;28;20063;-64
2024/03/10 10:24:23;;;;;;;0.83;0.80;;;;;;;13.40;65.05;98715.03;5094314;28;20044;-65
2024/03/10 10:27:02;;;;;;;2.30;1.97;;;;;;;13.32;64.99;98708.44;5096330;28;20127;-64
2024/03/10 10:29:32;;;;;;;;;;;;;;;13.29;65.57;98705.97;5090188;28;20762;-66
2024/03/10 10:32:06;;;;;;;2.60;1.17;;;;;;;13.27;65.65;98713.69;5085516;28;19971;-65
2024/03/10 10:34:35;;;;;;;0.95;0.93;;;;;;;13.33;66.13;98713.53;5084524;28;20048;-64
2024/03/10 10:37:04;;;;;;;;;;;;;;;13.63;65.71;98726.38;5082987;28;20041;-65
2024/03/10 10:39:33;;;;;;;0.40;0.40;;;;;;;14.01;65.81;98698.72;5085807;28;19924;-65
2024/03/10 10:42:04;;;;;;;4.30;2.03;;;;;;;14.47;65.12;98693.00;5089112;28;20032;-66
2024/03/10 10:44:40;;;;;;;2.08;0.93;;;;;;;14.80;63.05;98700.50;5078316;28;20047;-65
2024/03/10 10:47:14;;;;;;;0.85;0.85;;;;;;;14.72;62.12;98719.59;5096081;28;20086;-65
2024/03/10 10:49:43;;;;;;;2.20;1.45;;;;;;;14.54;62.50;98704.75;5096301;28;20070;-65
2024/03/10 10:52:13;;;;;;;10.23;2.67;;;;;;;14.59;63.06;98694.34;5094460;28;20130;-65
2024/03/10 10:54:42;;;;;;;1.38;1.27;;;;;;;14.67;62.59;98685.50;5096526;28;20139;-66
2024/03/10 10:57:15;;;;;;;2.90;2.28;;;;;;;14.93;62.50;98686.34;5095865;28;20047;-67
2024/03/10 10:59:48;;;;;;;0.60;0.60;;;;;;;14.92;61.58;98671.84;5096294;28;20131;-66
2024/03/10 11:02:19;;;;;;;2.13;1.92;;;;;;;14.97;61.21;98663.06;5096341;28;20521;-67
2024/03/10 11:04:49;;;;;;;1.05;0.88;;;;;;;15.14;61.39;98660.75;5094623;28;20052;-65
2024/03/10 11:07:18;;;;;;;1.17;1.07;;;;;;;15.15;60.15;98671.88;5111572;28;20032;-65
2024/03/10 11:09:47;;;;;;;;;;;;;;;15.04;60.44;98661.13;5095926;28;20277;-65
2024/03/10 11:12:22;;;;;;;1.23;1.05;;;;;;;14.98;61.03;98663.91;5094479;28;20023;-65
2024/03/10 11:14:53;;;;;;;11.27;1.13;;;;;;;14.99;60.69;98665.59;5095773;28;20127;-66
2024/03/10 11:17:23;;;;;;;1.75;1.65;;;;;;;14.77;60.56;98661.19;5094508;28;20050;-64
2024/03/10 11:19:56;;;;;;;1.40;1.02;;;;;;;14.66;61.48;98663.28;5095970;28;20051;-65
2024/03/10 11:22:27;;;;;;;1.58;1.48;;;;;;;14.76;61.48;98667.22;5095592;28;20490;-66
2024/03/10 11:25:08;;;;;;;0.82;0.65;;;;;;;14.68;60.87;98661.50;5077006;28;20055;-65
2024/03/10 11:27:42;;;;;;;0.75;0.73;;;;;;;14.82;61.35;98652.50;5095310;28;20043;-65
2024/03/10 11:30:47;;;;;;;1.20;0.90;;;;;;;14.98;60.38;98651.91;5095414;28;20139;-65
2024/03/10 11:33:23;;;;;;;1.50;1.00;;;;;;;14.94;59.89;98636.66;5094085;28;20044;-66
2024/03/10 11:35:53;;;;;;;0.75;0.75;;;;;;;15.05;60.63;98629.38;5095317;28;20067;-66
2024/03/10 11:38:22;;;;;;;1.20;1.10;;;;;;;15.32;59.68;98638.69;5095388;28;20074;-66
2024/03/10 11:41:07;;;;;;;2.78;1.38;;;;;;;15.43;58.94;98636.56;5095148;28;20040;-66
2024/03/10 11:43:41;;;;;;;1.05;0.98;;;;;;;15.51;58.93;98639.72;5082428;28;20494;-65
2024/03/10 11:46:18;;;;;;;1.08;1.02;;;;;;;15.47;58.60;98624.47;5085484;28;20036;-65
2024/03/10 11:48:48;;;;;;;0.65;0.65;;;;;;;15.64;58.24;98634.97;5087406;28;20571;-66
2024/03/10 11:51:17;;;;;;;1.60;1.27;;;;;;;15.43;58.74;98634.81;5093843;28;20486;-65
2024/03/10 11:53:47;;;;;;;3.20;1.20;;;;;;;15.39;58.59;98635.00;5094926;28;20033;-65
2024/03/10 11:56:16;;;;;;;1.63;1.52;;;;;;;15.45;59.35;98634.81;5094645;28;20132;-65
2024/03/10 11:58:48;;;;;;;0.77;0.77;;;;;;;15.51;58.03;98642.28;5094330;28;20056;-65
2024/03/10 12:01:17;;;;;;;1.30;1.20;;;;;;;15.49;58.13;98644.09;5094551;28;20074;-65
2024/03/10 12:03:49;;;;;;;3.30;1.67;;;;;;;15.45;59.15;98642.53;5088296;28;20078;-66
2024/03/10 12:06:18;;;;;;;2.17;0.93;;;;;;;15.53;58.18;98627.63;5073090;28;20052;-65
2024/03/10 12:08:48;;;;;;;1.70;1.58;;;;;;;15.47;58.26;98622.75;5074288;28;20037;-67
2024/03/10 12:11:18;;;;;;;3.67;1.35;;;;;;;15.44;58.63;98633.09;5074332;28;20049;-66
2024/03/10 12:13:51;;;;;;;1.80;1.48;;;;;;;15.31;58.64;98631.84;5056386;28;20486;-66
2024/03/10 12:16:21;;;;;;;3.83;1.10;;;;;;;15.12;58.99;98623.97;5074392;28;20430;-65